FW5821 Weather Reports


time (UTC)temp
C
wind
direction
speed
KPH
gust
KPH
rain 1hr
cm
rain 24hr
cm
rain mn
cm
humidity
%
barometer
mb
20260502231612 14 1 0.0 0.0 0.33 0.51 0.48 86 1012.2
20260502230609 14 14 0.0 0.0 0.48 0.51 0.48 85 1012.4
20260502225611 15 14 0.0 0.0 0.48 0.48 0.46 85 1012.8
20260502224610 15 319 0.0 0.0 0.46 0.43 0.43 84 1013.8
20260502223610 15 320 0.0 0.0 0.38 0.36 0.33 84 1014.1
20260502222607 15 317 0.0 0.0 0.23 0.23 0.20 83 1013.7
20260502221607 15 296 0.0 0.0 0.15 0.15 0.15 81 1013.7
20260502220604 15 0 0.0 0.0 0.03 0.03 0.00 79 1013.9
20260502215604 16 286 0.0 0.0 0.00 0.00 0.00 76 1013.4
20260502214605 16 289 0.0 0.0 0.00 0.00 0.00 74 1013.8
20260502213602 16 271 0.0 0.0 0.00 0.00 0.00 75 1014.1
20260502212602 16 116 0.0 0.0 0.00 0.00 0.00 75 1013.1
20260502211602 17 116 0.0 0.0 0.00 0.00 0.00 75 1012.6
20260502210558 17 116 0.0 0.0 0.00 0.00 0.00 75 1012.6
20260502205559 17 116 0.0 0.0 0.00 0.00 0.00 75 1012.6
20260502204556 17 121 0.0 0.0 0.00 0.00 0.00 75 1012.7
20260502203555 17 125 0.0 0.0 0.00 0.00 0.00 74 1012.9
20260502202553 18 120 0.0 0.0 0.00 0.00 0.00 73 1013.2
20260502201552 18 117 0.0 0.0 0.00 0.00 0.00 71 1013.3
20260502200550 19 134 0.0 0.0 0.00 0.00 0.00 71 1013.5
20260502195551 19 142 0.0 0.0 0.00 0.00 0.00 70 1013.6
20260502194548 19 23 0.0 0.0 0.00 0.00 0.00 69 1013.2
20260502193548 20 37 0.0 0.0 0.00 0.00 0.00 70 1013.2
20260502191544 20 348 0.0 0.0 0.00 0.00 0.00 68 1013.2
20260502190544 21 348 0.0 0.0 0.00 0.00 0.00 65 1013.2
20260502185540 21 348 0.0 0.0 0.00 0.00 0.00 66 1013.2
20260502183539 21 348 0.0 0.0 0.00 0.00 0.00 63 1013.3
20260502182539 22 348 0.0 0.0 0.00 0.00 0.00 63 1013.2
20260502181538 22 348 0.0 0.0 0.00 0.00 0.00 62 1013.2
20260502180538 22 348 0.0 0.0 0.00 0.00 0.00 62 1013.0
20260502163533 23 321 0.0 0.0 0.00 0.00 0.00 60 1013.8
20260502162533 23 309 0.0 0.0 0.00 0.00 0.00 60 1014.0
20260502161534 23 0 0.0 0.0 0.00 0.00 0.00 56 1014.2
20260502160532 23 0 0.0 0.0 0.00 0.00 0.00 56 1014.1
20260502151531 23 0 0.0 0.0 0.00 0.00 0.00 57 1014.8
20260502150530 23 268 0.0 0.0 0.00 0.00 0.00 61 1015.0
20260502130522 22 0 0.0 0.0 0.00 0.00 0.00 59 1016.2
20260502123513 23 0 0.0 0.0 0.00 0.00 0.00 57 1016.6
20260502122512 23 296 0.0 0.0 0.00 0.00 0.00 61 1016.6
20260502120511 22 0 0.0 0.0 0.00 0.00 0.00 58 1016.8
20260502115507 22 272 0.0 0.0 0.00 0.00 0.00 60 1016.8
20260502113507 22 0 0.0 0.0 0.00 0.00 0.00 59 1017.1
20260502112520 22 214 0.0 0.0 0.00 0.00 0.00 56 1017.1
20260502111509 22 0 0.0 0.0 0.00 0.00 0.00 60 1017.2
20260502110518 22 169 0.0 0.0 0.00 0.00 0.00 60 1017.2
20260502105505 22 0 0.0 0.0 0.00 0.00 0.00 58 1017.2
20260502104504 22 0 0.0 0.0 0.00 0.00 0.00 60 1017.3
20260502103504 21 278 0.0 0.0 0.00 0.00 0.00 62 1017.4
20260502102505 21 0 0.0 0.0 0.00 0.00 0.00 60 1017.5
20260502101504 21 0 0.0 0.0 0.00 0.00 0.00 61 1017.5
20260502100503 21 0 0.0 0.0 0.00 0.00 0.00 64 1017.6
20260502091455 20 0 0.0 0.0 0.00 0.00 0.00 63 1017.8
20260502090455 19 0 0.0 0.0 0.00 0.00 0.00 63 1017.8
20260502071436 15 206 0.0 0.0 0.00 0.00 0.00 61 1018.1
20260502070434 15 204 0.0 0.0 0.00 0.00 0.00 60 1018.1
20260502065437 15 197 0.0 0.0 0.00 0.00 0.00 59 1018.3
20260502064433 15 180 0.0 0.0 0.00 0.00 0.00 59 1018.1
20260502063430 15 180 0.0 0.0 0.00 0.00 0.00 59 1018.0
20260502062428 15 180 0.0 0.0 0.00 0.00 0.00 58 1017.9
20260502061429 15 197 0.0 0.0 0.00 0.00 0.00 60 1018.1
20260502060426 15 189 0.0 0.0 0.00 0.00 0.00 60 1018.0
20260502055425 14 203 0.0 0.0 0.00 0.00 0.00 61 1018.1
20260502053421 13 149 0.0 0.0 0.00 0.00 0.00 65 1018.0
20260502052422 12 144 0.0 0.0 0.00 0.00 0.00 66 1017.7
20260502051417 11 138 0.0 0.0 0.00 0.00 0.00 70 1017.8
20260502045420 10 138 0.0 0.0 0.00 0.00 0.00 70 1017.8
20260502044417 10 138 0.0 0.0 0.00 0.00 0.00 70 1017.9
20260502043420 10 138 0.0 0.0 0.00 0.00 0.00 71 1017.9
20260502042418 9 138 0.0 0.0 0.00 0.00 0.00 72 1017.8
20260502041416 9 140 0.0 0.0 0.00 0.00 0.00 71 1017.9
20260502040416 10 140 0.0 0.0 0.00 0.00 0.00 68 1018.0
20260502035417 10 141 0.0 0.0 0.00 0.00 0.00 66 1018.3
20260502034416 10 141 0.0 0.0 0.00 0.00 0.00 67 1018.2
20260502033417 10 140 0.0 0.0 0.00 0.00 0.00 67 1018.1
20260502032418 10 133 0.0 0.0 0.00 0.00 0.00 68 1018.2
20260502031431 9 137 0.0 0.0 0.00 0.00 0.00 69 1018.2
20260502030418 9 140 0.0 0.0 0.00 0.00 0.00 70 1018.3
20260502025417 9 141 0.0 0.0 0.00 0.00 0.00 70 1018.4
20260502023415 10 166 0.0 0.0 0.00 0.00 0.00 67 1018.6
20260502021415 10 168 0.0 0.0 0.00 0.00 0.00 66 1018.7
20260502020414 10 168 0.0 0.0 0.00 0.00 0.00 67 1018.7
20260502015416 10 168 0.0 0.0 0.00 0.00 0.00 66 1018.7
20260502014414 10 169 0.0 0.0 0.00 0.00 0.00 66 1018.8
20260502013415 10 161 0.0 0.0 0.00 0.00 0.00 66 1018.8
20260502012415 10 147 0.0 0.0 0.00 0.00 0.00 65 1018.8
20260502011414 10 145 0.0 0.0 0.00 0.00 0.00 64 1018.9
20260502010412 11 145 0.0 0.0 0.00 0.00 0.00 64 1019.0
20260502005411 11 144 0.0 0.0 0.00 0.00 0.00 63 1019.2
20260502004410 11 159 0.0 0.0 0.00 0.00 0.00 63 1019.2
20260502002411 11 158 0.0 0.0 0.00 0.00 0.00 62 1019.5
20260502001412 12 157 0.0 0.0 0.00 0.00 0.00 62 1019.5
20260502000420 12 154 0.0 0.0 0.00 0.00 0.00 61 1019.6
20260501235413 12 154 0.0 0.0 0.00 0.00 0.00 60 1019.7
20260501234414 12 154 0.0 0.0 0.00 0.00 0.00 60 1019.8
20260501233411 12 151 0.0 0.0 0.00 0.00 0.00 59 1019.8
20260501232410 13 157 0.0 0.0 0.00 0.00 0.00 58 1019.8